sensor_id;sensor_type;location;lat;lon;timestamp;temperature;humidity
51615;DHT22;37695;52.960;6.188;2023-08-06T00:02:06;14.70;99.90
51615;DHT22;37695;52.960;6.188;2023-08-06T00:04:31;14.70;99.90
51615;DHT22;37695;52.960;6.188;2023-08-06T00:06:57;14.70;99.90
51615;DHT22;37695;52.960;6.188;2023-08-06T00:09:23;14.70;99.90
51615;DHT22;37695;52.960;6.188;2023-08-06T00:11:48;14.70;99.90
51615;DHT22;37695;52.960;6.188;2023-08-06T00:14:14;14.70;99.90
51615;DHT22;37695;52.960;6.188;2023-08-06T00:16:44;14.70;99.90
51615;DHT22;37695;52.960;6.188;2023-08-06T00:19:09;14.70;99.90
51615;DHT22;37695;52.960;6.188;2023-08-06T00:21:36;14.70;99.90
51615;DHT22;37695;52.960;6.188;2023-08-06T00:24:01;14.70;99.90
51615;DHT22;37695;52.960;6.188;2023-08-06T00:26:26;14.70;99.90
51615;DHT22;37695;52.960;6.188;2023-08-06T00:28:52;14.70;99.90
51615;DHT22;37695;52.960;6.188;2023-08-06T00:31:17;14.70;99.90
51615;DHT22;37695;52.960;6.188;2023-08-06T00:33:43;14.70;99.90
51615;DHT22;37695;52.960;6.188;2023-08-06T00:36:09;14.70;99.90
51615;DHT22;37695;52.960;6.188;2023-08-06T00:38:34;14.70;99.90
51615;DHT22;37695;52.960;6.188;2023-08-06T00:41:00;14.70;99.90
51615;DHT22;37695;52.960;6.188;2023-08-06T00:43:25;14.70;99.90
51615;DHT22;37695;52.960;6.188;2023-08-06T00:45:51;14.60;99.90
51615;DHT22;37695;52.960;6.188;2023-08-06T00:48:16;14.70;99.90
51615;DHT22;37695;52.960;6.188;2023-08-06T00:50:42;14.60;99.90
51615;DHT22;37695;52.960;6.188;2023-08-06T00:53:08;14.70;99.90
51615;DHT22;37695;52.960;6.188;2023-08-06T00:55:34;14.70;99.90
51615;DHT22;37695;52.960;6.188;2023-08-06T00:58:00;14.70;99.90
51615;DHT22;37695;52.960;6.188;2023-08-06T01:00:27;14.70;99.90
51615;DHT22;37695;52.960;6.188;2023-08-06T01:02:53;14.70;99.90
51615;DHT22;37695;52.960;6.188;2023-08-06T01:05:20;14.70;99.90
51615;DHT22;37695;52.960;6.188;2023-08-06T01:13:23;14.60;99.90
51615;DHT22;37695;52.960;6.188;2023-08-06T01:15:54;14.60;99.90
51615;DHT22;37695;52.960;6.188;2023-08-06T01:18:22;14.60;99.90
51615;DHT22;37695;52.960;6.188;2023-08-06T01:20:48;14.60;99.90
51615;DHT22;37695;52.960;6.188;2023-08-06T01:23:15;14.60;99.90
51615;DHT22;37695;52.960;6.188;2023-08-06T01:28:59;14.60;99.90
51615;DHT22;37695;52.960;6.188;2023-08-06T01:31:29;14.60;99.90
51615;DHT22;37695;52.960;6.188;2023-08-06T01:33:56;14.60;99.90
51615;DHT22;37695;52.960;6.188;2023-08-06T01:36:23;14.60;99.90
51615;DHT22;37695;52.960;6.188;2023-08-06T01:38:54;14.60;99.90
51615;DHT22;37695;52.960;6.188;2023-08-06T01:41:19;14.60;99.90
51615;DHT22;37695;52.960;6.188;2023-08-06T01:43:45;14.60;99.90
51615;DHT22;37695;52.960;6.188;2023-08-06T01:46:10;14.60;99.90
51615;DHT22;37695;52.960;6.188;2023-08-06T01:48:36;14.60;99.90
51615;DHT22;37695;52.960;6.188;2023-08-06T01:51:04;14.60;99.90
51615;DHT22;37695;52.960;6.188;2023-08-06T01:53:31;14.60;99.90
51615;DHT22;37695;52.960;6.188;2023-08-06T01:55:57;14.60;99.90
51615;DHT22;37695;52.960;6.188;2023-08-06T01:58:22;14.50;99.90
51615;DHT22;37695;52.960;6.188;2023-08-06T02:00:48;14.50;99.90
51615;DHT22;37695;52.960;6.188;2023-08-06T02:03:13;14.50;99.90
51615;DHT22;37695;52.960;6.188;2023-08-06T02:05:40;14.50;99.90
51615;DHT22;37695;52.960;6.188;2023-08-06T02:08:05;14.50;99.90
51615;DHT22;37695;52.960;6.188;2023-08-06T02:10:31;14.50;99.90
51615;DHT22;37695;52.960;6.188;2023-08-06T02:12:56;14.50;99.90
51615;DHT22;37695;52.960;6.188;2023-08-06T02:15:22;14.50;99.90
51615;DHT22;37695;52.960;6.188;2023-08-06T02:17:47;14.50;99.90
51615;DHT22;37695;52.960;6.188;2023-08-06T02:20:13;14.50;99.90
51615;DHT22;37695;52.960;6.188;2023-08-06T02:22:39;14.60;99.90
51615;DHT22;37695;52.960;6.188;2023-08-06T02:25:04;14.50;99.90
51615;DHT22;37695;52.960;6.188;2023-08-06T02:27:30;14.50;99.90
51615;DHT22;37695;52.960;6.188;2023-08-06T02:29:56;14.50;99.90
51615;DHT22;37695;52.960;6.188;2023-08-06T02:32:21;14.50;99.90
51615;DHT22;37695;52.960;6.188;2023-08-06T02:34:47;14.50;99.90
51615;DHT22;37695;52.960;6.188;2023-08-06T02:37:12;14.50;99.90
51615;DHT22;37695;52.960;6.188;2023-08-06T02:39:38;14.40;99.90
51615;DHT22;37695;52.960;6.188;2023-08-06T02:42:06;14.50;99.90
51615;DHT22;37695;52.960;6.188;2023-08-06T02:44:33;14.40;99.90
51615;DHT22;37695;52.960;6.188;2023-08-06T02:46:59;14.50;99.90
51615;DHT22;37695;52.960;6.188;2023-08-06T02:49:24;14.40;99.90
51615;DHT22;37695;52.960;6.188;2023-08-06T02:51:50;14.40;99.90
51615;DHT22;37695;52.960;6.188;2023-08-06T02:54:15;14.50;99.90
51615;DHT22;37695;52.960;6.188;2023-08-06T02:56:44;14.50;99.90
51615;DHT22;37695;52.960;6.188;2023-08-06T02:59:10;14.40;99.90
51615;DHT22;37695;52.960;6.188;2023-08-06T03:01:36;14.40;99.90
51615;DHT22;37695;52.960;6.188;2023-08-06T03:04:02;14.40;99.90
51615;DHT22;37695;52.960;6.188;2023-08-06T03:06:27;14.40;99.90
51615;DHT22;37695;52.960;6.188;2023-08-06T03:08:53;14.40;99.90
51615;DHT22;37695;52.960;6.188;2023-08-06T03:11:18;14.30;99.90
51615;DHT22;37695;52.960;6.188;2023-08-06T03:13:44;14.30;99.90
51615;DHT22;37695;52.960;6.188;2023-08-06T03:16:09;14.30;99.90
51615;DHT22;37695;52.960;6.188;2023-08-06T03:18:35;14.30;99.90
51615;DHT22;37695;52.960;6.188;2023-08-06T03:21:00;14.20;99.90
51615;DHT22;37695;52.960;6.188;2023-08-06T03:23:26;14.20;99.90
51615;DHT22;37695;52.960;6.188;2023-08-06T03:25:52;14.20;99.90
51615;DHT22;37695;52.960;6.188;2023-08-06T03:28:17;14.20;99.90
51615;DHT22;37695;52.960;6.188;2023-08-06T03:30:43;14.20;99.90
51615;DHT22;37695;52.960;6.188;2023-08-06T03:33:08;14.20;99.90
51615;DHT22;37695;52.960;6.188;2023-08-06T03:35:34;14.30;99.90
51615;DHT22;37695;52.960;6.188;2023-08-06T03:37:59;14.20;99.90
51615;DHT22;37695;52.960;6.188;2023-08-06T03:40:25;14.30;99.90
51615;DHT22;37695;52.960;6.188;2023-08-06T03:42:50;14.30;99.90
51615;DHT22;37695;52.960;6.188;2023-08-06T03:45:16;14.20;99.90
51615;DHT22;37695;52.960;6.188;2023-08-06T03:47:41;14.20;99.90
51615;DHT22;37695;52.960;6.188;2023-08-06T03:50:07;14.30;99.90
51615;DHT22;37695;52.960;6.188;2023-08-06T03:52:33;14.30;99.90
51615;DHT22;37695;52.960;6.188;2023-08-06T03:54:58;14.30;99.90
51615;DHT22;37695;52.960;6.188;2023-08-06T03:57:24;14.30;99.90
51615;DHT22;37695;52.960;6.188;2023-08-06T03:59:49;14.30;99.90
51615;DHT22;37695;52.960;6.188;2023-08-06T04:02:15;14.30;99.90
51615;DHT22;37695;52.960;6.188;2023-08-06T04:04:40;14.20;99.90
51615;DHT22;37695;52.960;6.188;2023-08-06T04:07:06;14.30;99.90
51615;DHT22;37695;52.960;6.188;2023-08-06T04:09:31;14.30;99.90
51615;DHT22;37695;52.960;6.188;2023-08-06T04:11:57;14.30;99.90
51615;DHT22;37695;52.960;6.188;2023-08-06T04:14:24;14.30;99.90
51615;DHT22;37695;52.960;6.188;2023-08-06T04:16:51;14.30;99.90
51615;DHT22;37695;52.960;6.188;2023-08-06T04:19:16;14.30;99.90
51615;DHT22;37695;52.960;6.188;2023-08-06T04:21:42;14.30;99.90
51615;DHT22;37695;52.960;6.188;2023-08-06T04:24:07;14.30;99.90
51615;DHT22;37695;52.960;6.188;2023-08-06T04:26:33;14.30;99.90
51615;DHT22;37695;52.960;6.188;2023-08-06T04:28:58;14.30;99.90
51615;DHT22;37695;52.960;6.188;2023-08-06T04:31:25;14.30;99.90
51615;DHT22;37695;52.960;6.188;2023-08-06T04:33:51;14.40;99.90
51615;DHT22;37695;52.960;6.188;2023-08-06T04:36:16;14.30;99.90
51615;DHT22;37695;52.960;6.188;2023-08-06T04:38:42;14.40;99.90
51615;DHT22;37695;52.960;6.188;2023-08-06T04:41:10;14.40;99.90
51615;DHT22;37695;52.960;6.188;2023-08-06T04:43:36;14.40;99.90
51615;DHT22;37695;52.960;6.188;2023-08-06T04:46:02;14.40;99.90
51615;DHT22;37695;52.960;6.188;2023-08-06T04:48:27;14.40;99.90
51615;DHT22;37695;52.960;6.188;2023-08-06T04:50:53;14.40;99.90
51615;DHT22;37695;52.960;6.188;2023-08-06T04:53:19;14.40;99.90
51615;DHT22;37695;52.960;6.188;2023-08-06T04:55:45;14.50;99.90
51615;DHT22;37695;52.960;6.188;2023-08-06T04:58:11;14.50;99.90
51615;DHT22;37695;52.960;6.188;2023-08-06T05:00:37;14.50;99.90
51615;DHT22;37695;52.960;6.188;2023-08-06T05:03:03;14.60;99.90
51615;DHT22;37695;52.960;6.188;2023-08-06T05:05:28;14.70;99.90
51615;DHT22;37695;52.960;6.188;2023-08-06T05:07:55;14.60;99.90
51615;DHT22;37695;52.960;6.188;2023-08-06T05:10:21;14.60;99.90
51615;DHT22;37695;52.960;6.188;2023-08-06T05:12:47;14.60;99.90
51615;DHT22;37695;52.960;6.188;2023-08-06T05:15:13;14.70;99.90
51615;DHT22;37695;52.960;6.188;2023-08-06T05:17:38;14.60;99.90
51615;DHT22;37695;52.960;6.188;2023-08-06T05:20:04;14.70;99.90
51615;DHT22;37695;52.960;6.188;2023-08-06T05:22:30;14.70;99.90
51615;DHT22;37695;52.960;6.188;2023-08-06T05:24:55;14.70;99.90
51615;DHT22;37695;52.960;6.188;2023-08-06T05:27:21;14.80;99.90
51615;DHT22;37695;52.960;6.188;2023-08-06T05:29:48;14.80;99.90
51615;DHT22;37695;52.960;6.188;2023-08-06T05:32:13;14.80;99.90
51615;DHT22;37695;52.960;6.188;2023-08-06T05:34:39;14.90;99.90
51615;DHT22;37695;52.960;6.188;2023-08-06T05:37:05;14.90;99.90
51615;DHT22;37695;52.960;6.188;2023-08-06T05:39:30;15.00;99.90
51615;DHT22;37695;52.960;6.188;2023-08-06T05:41:56;15.00;99.90
51615;DHT22;37695;52.960;6.188;2023-08-06T05:44:23;15.10;99.90
51615;DHT22;37695;52.960;6.188;2023-08-06T05:46:49;15.10;99.90
51615;DHT22;37695;52.960;6.188;2023-08-06T05:49:15;15.10;99.90
51615;DHT22;37695;52.960;6.188;2023-08-06T05:51:41;15.10;99.90
51615;DHT22;37695;52.960;6.188;2023-08-06T05:54:07;15.10;99.90
51615;DHT22;37695;52.960;6.188;2023-08-06T05:56:32;15.10;99.90
51615;DHT22;37695;52.960;6.188;2023-08-06T05:58:58;15.10;99.90
51615;DHT22;37695;52.960;6.188;2023-08-06T06:01:23;15.10;99.90
51615;DHT22;37695;52.960;6.188;2023-08-06T06:03:49;15.10;99.90
51615;DHT22;37695;52.960;6.188;2023-08-06T06:06:14;15.10;99.90
51615;DHT22;37695;52.960;6.188;2023-08-06T06:08:40;15.20;99.90
51615;DHT22;37695;52.960;6.188;2023-08-06T06:11:05;15.20;99.90
51615;DHT22;37695;52.960;6.188;2023-08-06T06:13:31;15.20;99.90
51615;DHT22;37695;52.960;6.188;2023-08-06T06:15:56;15.40;99.90
51615;DHT22;37695;52.960;6.188;2023-08-06T06:18:22;15.50;99.90
51615;DHT22;37695;52.960;6.188;2023-08-06T06:20:48;15.50;99.90
51615;DHT22;37695;52.960;6.188;2023-08-06T06:23:13;15.60;99.90
51615;DHT22;37695;52.960;6.188;2023-08-06T06:25:49;15.60;99.90
51615;DHT22;37695;52.960;6.188;2023-08-06T06:28:18;15.80;99.90
51615;DHT22;37695;52.960;6.188;2023-08-06T06:30:44;15.80;99.90
51615;DHT22;37695;52.960;6.188;2023-08-06T06:33:10;15.90;99.90
51615;DHT22;37695;52.960;6.188;2023-08-06T06:35:36;15.90;99.90
51615;DHT22;37695;52.960;6.188;2023-08-06T06:38:01;15.90;99.90
51615;DHT22;37695;52.960;6.188;2023-08-06T06:40:28;16.00;99.90
51615;DHT22;37695;52.960;6.188;2023-08-06T06:42:53;16.00;99.90
51615;DHT22;37695;52.960;6.188;2023-08-06T06:45:19;16.00;99.90
51615;DHT22;37695;52.960;6.188;2023-08-06T06:47:44;16.20;99.90
51615;DHT22;37695;52.960;6.188;2023-08-06T06:50:10;16.20;99.90
51615;DHT22;37695;52.960;6.188;2023-08-06T06:52:35;16.30;99.90
51615;DHT22;37695;52.960;6.188;2023-08-06T06:55:01;16.30;99.90
51615;DHT22;37695;52.960;6.188;2023-08-06T06:57:26;16.30;99.90
51615;DHT22;37695;52.960;6.188;2023-08-06T06:59:52;16.30;99.90
51615;DHT22;37695;52.960;6.188;2023-08-06T07:02:18;16.20;99.90
51615;DHT22;37695;52.960;6.188;2023-08-06T07:04:43;16.20;99.90
51615;DHT22;37695;52.960;6.188;2023-08-06T07:07:09;16.30;99.90
51615;DHT22;37695;52.960;6.188;2023-08-06T07:09:35;16.30;99.90
51615;DHT22;37695;52.960;6.188;2023-08-06T07:12:01;16.40;99.90
51615;DHT22;37695;52.960;6.188;2023-08-06T07:14:28;16.30;99.90
51615;DHT22;37695;52.960;6.188;2023-08-06T07:16:54;16.40;99.90
51615;DHT22;37695;52.960;6.188;2023-08-06T07:19:19;16.40;99.90
51615;DHT22;37695;52.960;6.188;2023-08-06T07:21:45;16.40;99.90
51615;DHT22;37695;52.960;6.188;2023-08-06T07:24:10;16.50;99.90
51615;DHT22;37695;52.960;6.188;2023-08-06T07:26:37;16.50;99.90
51615;DHT22;37695;52.960;6.188;2023-08-06T07:29:02;16.60;99.90
51615;DHT22;37695;52.960;6.188;2023-08-06T07:31:28;16.70;99.90
51615;DHT22;37695;52.960;6.188;2023-08-06T07:33:54;16.70;99.90
51615;DHT22;37695;52.960;6.188;2023-08-06T07:36:20;16.70;99.90
51615;DHT22;37695;52.960;6.188;2023-08-06T07:38:46;16.70;99.90
51615;DHT22;37695;52.960;6.188;2023-08-06T07:41:11;16.70;99.90
51615;DHT22;37695;52.960;6.188;2023-08-06T07:43:37;16.80;99.90
51615;DHT22;37695;52.960;6.188;2023-08-06T07:46:02;16.80;99.90
51615;DHT22;37695;52.960;6.188;2023-08-06T07:48:28;16.80;99.90
51615;DHT22;37695;52.960;6.188;2023-08-06T07:50:55;16.90;99.90
51615;DHT22;37695;52.960;6.188;2023-08-06T07:53:24;16.90;99.90
51615;DHT22;37695;52.960;6.188;2023-08-06T07:55:53;17.00;99.90
51615;DHT22;37695;52.960;6.188;2023-08-06T07:58:19;16.90;99.90
51615;DHT22;37695;52.960;6.188;2023-08-06T08:00:45;17.00;99.90
51615;DHT22;37695;52.960;6.188;2023-08-06T08:03:15;17.10;99.90
51615;DHT22;37695;52.960;6.188;2023-08-06T08:05:44;17.10;99.90
51615;DHT22;37695;52.960;6.188;2023-08-06T08:08:10;17.20;99.90
51615;DHT22;37695;52.960;6.188;2023-08-06T08:10:35;17.30;99.90
51615;DHT22;37695;52.960;6.188;2023-08-06T08:13:05;17.30;99.90
51615;DHT22;37695;52.960;6.188;2023-08-06T08:15:31;17.30;99.90
51615;DHT22;37695;52.960;6.188;2023-08-06T08:17:57;17.40;99.90
51615;DHT22;37695;52.960;6.188;2023-08-06T08:20:23;17.40;99.90
51615;DHT22;37695;52.960;6.188;2023-08-06T08:22:49;17.50;99.90
51615;DHT22;37695;52.960;6.188;2023-08-06T08:25:15;17.50;99.90
51615;DHT22;37695;52.960;6.188;2023-08-06T08:27:41;17.60;99.90
51615;DHT22;37695;52.960;6.188;2023-08-06T08:30:07;17.70;99.90
51615;DHT22;37695;52.960;6.188;2023-08-06T08:32:33;17.70;99.90
51615;DHT22;37695;52.960;6.188;2023-08-06T08:34:58;17.80;99.90
51615;DHT22;37695;52.960;6.188;2023-08-06T08:37:24;17.80;99.90
51615;DHT22;37695;52.960;6.188;2023-08-06T08:39:49;17.80;99.90
51615;DHT22;37695;52.960;6.188;2023-08-06T08:42:16;17.90;99.90
51615;DHT22;37695;52.960;6.188;2023-08-06T08:44:45;17.80;99.90
51615;DHT22;37695;52.960;6.188;2023-08-06T08:47:11;17.90;99.90
51615;DHT22;37695;52.960;6.188;2023-08-06T08:49:37;17.80;99.90
51615;DHT22;37695;52.960;6.188;2023-08-06T08:52:04;17.80;99.90
51615;DHT22;37695;52.960;6.188;2023-08-06T08:54:38;17.80;99.90
51615;DHT22;37695;52.960;6.188;2023-08-06T08:57:04;17.80;99.90
51615;DHT22;37695;52.960;6.188;2023-08-06T08:59:30;17.90;99.90
51615;DHT22;37695;52.960;6.188;2023-08-06T09:01:56;18.30;99.90
51615;DHT22;37695;52.960;6.188;2023-08-06T09:04:23;18.00;99.90
51615;DHT22;37695;52.960;6.188;2023-08-06T09:06:50;18.10;99.90
51615;DHT22;37695;52.960;6.188;2023-08-06T09:09:26;18.10;99.90
51615;DHT22;37695;52.960;6.188;2023-08-06T09:11:55;18.30;99.90
51615;DHT22;37695;52.960;6.188;2023-08-06T09:14:23;18.40;99.90
51615;DHT22;37695;52.960;6.188;2023-08-06T09:16:49;18.40;99.90
51615;DHT22;37695;52.960;6.188;2023-08-06T09:19:17;18.50;99.90
51615;DHT22;37695;52.960;6.188;2023-08-06T09:21:43;18.50;99.90
51615;DHT22;37695;52.960;6.188;2023-08-06T09:24:12;18.60;99.90
51615;DHT22;37695;52.960;6.188;2023-08-06T09:26:38;18.70;99.90
51615;DHT22;37695;52.960;6.188;2023-08-06T09:29:08;18.80;99.90
51615;DHT22;37695;52.960;6.188;2023-08-06T09:31:54;18.90;99.90
51615;DHT22;37695;52.960;6.188;2023-08-06T09:34:21;19.10;99.90
51615;DHT22;37695;52.960;6.188;2023-08-06T09:36:51;19.10;99.90
51615;DHT22;37695;52.960;6.188;2023-08-06T09:39:30;19.10;99.90
51615;DHT22;37695;52.960;6.188;2023-08-06T09:42:00;19.20;99.90
51615;DHT22;37695;52.960;6.188;2023-08-06T09:44:28;19.20;99.90
51615;DHT22;37695;52.960;6.188;2023-08-06T09:46:55;19.20;99.90
51615;DHT22;37695;52.960;6.188;2023-08-06T09:52:02;19.40;99.90
51615;DHT22;37695;52.960;6.188;2023-08-06T09:54:28;19.40;99.90
51615;DHT22;37695;52.960;6.188;2023-08-06T09:56:56;19.50;99.90
51615;DHT22;37695;52.960;6.188;2023-08-06T09:59:24;19.70;99.90
51615;DHT22;37695;52.960;6.188;2023-08-06T10:01:50;19.80;99.90
51615;DHT22;37695;52.960;6.188;2023-08-06T10:04:16;19.90;99.90
51615;DHT22;37695;52.960;6.188;2023-08-06T10:06:43;20.00;99.90
51615;DHT22;37695;52.960;6.188;2023-08-06T10:09:11;20.00;99.90
51615;DHT22;37695;52.960;6.188;2023-08-06T10:11:38;20.10;99.90
51615;DHT22;37695;52.960;6.188;2023-08-06T10:16:34;20.30;99.90
51615;DHT22;37695;52.960;6.188;2023-08-06T10:19:01;20.40;99.90
51615;DHT22;37695;52.960;6.188;2023-08-06T10:21:28;20.40;99.90
51615;DHT22;37695;52.960;6.188;2023-08-06T10:23:56;20.40;99.90
51615;DHT22;37695;52.960;6.188;2023-08-06T10:26:26;20.40;99.90
51615;DHT22;37695;52.960;6.188;2023-08-06T10:28:52;20.60;99.90
51615;DHT22;37695;52.960;6.188;2023-08-06T10:31:18;20.60;99.90
51615;DHT22;37695;52.960;6.188;2023-08-06T10:33:45;20.50;99.90
51615;DHT22;37695;52.960;6.188;2023-08-06T10:36:11;20.50;99.90
51615;DHT22;37695;52.960;6.188;2023-08-06T10:38:50;20.30;99.90
51615;DHT22;37695;52.960;6.188;2023-08-06T10:41:29;20.40;99.90
51615;DHT22;37695;52.960;6.188;2023-08-06T10:44:07;20.60;99.90
51615;DHT22;37695;52.960;6.188;2023-08-06T10:46:33;20.60;99.90
51615;DHT22;37695;52.960;6.188;2023-08-06T10:48:59;20.60;99.90
51615;DHT22;37695;52.960;6.188;2023-08-06T10:51:25;20.60;99.90
51615;DHT22;37695;52.960;6.188;2023-08-06T10:53:51;20.60;99.90
51615;DHT22;37695;52.960;6.188;2023-08-06T10:56:20;20.60;99.90
51615;DHT22;37695;52.960;6.188;2023-08-06T10:58:53;20.60;99.90
51615;DHT22;37695;52.960;6.188;2023-08-06T11:01:19;20.60;99.90
51615;DHT22;37695;52.960;6.188;2023-08-06T11:03:47;20.70;99.90
51615;DHT22;37695;52.960;6.188;2023-08-06T11:06:21;20.90;99.90
51615;DHT22;37695;52.960;6.188;2023-08-06T11:08:52;21.00;99.90
51615;DHT22;37695;52.960;6.188;2023-08-06T11:11:18;21.10;99.90
51615;DHT22;37695;52.960;6.188;2023-08-06T11:13:45;21.10;99.90
51615;DHT22;37695;52.960;6.188;2023-08-06T11:16:21;21.50;99.90
51615;DHT22;37695;52.960;6.188;2023-08-06T11:18:48;21.80;99.90
51615;DHT22;37695;52.960;6.188;2023-08-06T11:21:14;21.90;99.90
51615;DHT22;37695;52.960;6.188;2023-08-06T11:23:41;21.90;99.90
51615;DHT22;37695;52.960;6.188;2023-08-06T11:26:07;21.90;99.90
51615;DHT22;37695;52.960;6.188;2023-08-06T11:28:33;22.20;99.90
51615;DHT22;37695;52.960;6.188;2023-08-06T11:30:59;22.00;99.90
51615;DHT22;37695;52.960;6.188;2023-08-06T11:33:28;21.90;99.90
51615;DHT22;37695;52.960;6.188;2023-08-06T11:35:55;21.60;99.90
51615;DHT22;37695;52.960;6.188;2023-08-06T11:38:24;21.50;99.90
51615;DHT22;37695;52.960;6.188;2023-08-06T11:40:50;21.60;99.90
51615;DHT22;37695;52.960;6.188;2023-08-06T11:43:19;21.90;99.90
51615;DHT22;37695;52.960;6.188;2023-08-06T11:45:46;22.20;99.90
51615;DHT22;37695;52.960;6.188;2023-08-06T11:48:12;22.40;99.90
51615;DHT22;37695;52.960;6.188;2023-08-06T11:50:38;22.50;99.90
51615;DHT22;37695;52.960;6.188;2023-08-06T11:53:04;22.70;99.90
51615;DHT22;37695;52.960;6.188;2023-08-06T11:55:30;22.80;99.90
51615;DHT22;37695;52.960;6.188;2023-08-06T11:57:56;22.70;99.90
51615;DHT22;37695;52.960;6.188;2023-08-06T12:00:25;22.50;99.90
51615;DHT22;37695;52.960;6.188;2023-08-06T12:02:52;22.30;99.90
51615;DHT22;37695;52.960;6.188;2023-08-06T12:05:22;22.10;99.90
51615;DHT22;37695;52.960;6.188;2023-08-06T12:07:53;22.00;99.90
51615;DHT22;37695;52.960;6.188;2023-08-06T12:10:19;21.90;99.90
51615;DHT22;37695;52.960;6.188;2023-08-06T12:12:46;21.80;99.90
51615;DHT22;37695;52.960;6.188;2023-08-06T12:15:12;21.80;99.90
51615;DHT22;37695;52.960;6.188;2023-08-06T12:17:38;22.00;99.90
51615;DHT22;37695;52.960;6.188;2023-08-06T12:20:04;22.30;99.90
51615;DHT22;37695;52.960;6.188;2023-08-06T12:22:32;22.40;99.90
51615;DHT22;37695;52.960;6.188;2023-08-06T12:25:08;22.50;99.90
51615;DHT22;37695;52.960;6.188;2023-08-06T12:27:38;22.80;99.90
51615;DHT22;37695;52.960;6.188;2023-08-06T12:30:05;22.90;99.90
51615;DHT22;37695;52.960;6.188;2023-08-06T12:32:31;22.80;99.90
51615;DHT22;37695;52.960;6.188;2023-08-06T12:34:56;22.50;99.90
51615;DHT22;37695;52.960;6.188;2023-08-06T12:37:24;22.20;99.90
51615;DHT22;37695;52.960;6.188;2023-08-06T12:39:49;22.00;99.90
51615;DHT22;37695;52.960;6.188;2023-08-06T12:42:15;21.80;99.90
51615;DHT22;37695;52.960;6.188;2023-08-06T12:44:41;21.70;99.90
51615;DHT22;37695;52.960;6.188;2023-08-06T12:47:09;21.50;99.90
51615;DHT22;37695;52.960;6.188;2023-08-06T12:49:35;21.40;99.90
51615;DHT22;37695;52.960;6.188;2023-08-06T12:52:01;21.20;99.90
51615;DHT22;37695;52.960;6.188;2023-08-06T12:54:27;21.10;99.90
51615;DHT22;37695;52.960;6.188;2023-08-06T12:56:53;21.00;99.90
51615;DHT22;37695;52.960;6.188;2023-08-06T12:59:19;20.80;99.90
51615;DHT22;37695;52.960;6.188;2023-08-06T13:01:44;20.80;99.90
51615;DHT22;37695;52.960;6.188;2023-08-06T13:04:10;20.70;99.90
51615;DHT22;37695;52.960;6.188;2023-08-06T13:06:37;20.60;99.90
51615;DHT22;37695;52.960;6.188;2023-08-06T13:09:03;20.50;99.90
51615;DHT22;37695;52.960;6.188;2023-08-06T13:11:30;20.40;99.90
51615;DHT22;37695;52.960;6.188;2023-08-06T13:14:04;20.40;99.90
51615;DHT22;37695;52.960;6.188;2023-08-06T13:16:30;20.30;99.90
51615;DHT22;37695;52.960;6.188;2023-08-06T13:18:55;20.20;99.90
51615;DHT22;37695;52.960;6.188;2023-08-06T13:21:21;20.20;99.90
51615;DHT22;37695;52.960;6.188;2023-08-06T13:23:46;20.30;99.90
51615;DHT22;37695;52.960;6.188;2023-08-06T13:26:13;20.50;99.90
51615;DHT22;37695;52.960;6.188;2023-08-06T13:28:38;20.70;99.90
51615;DHT22;37695;52.960;6.188;2023-08-06T13:31:04;20.90;99.90
51615;DHT22;37695;52.960;6.188;2023-08-06T13:33:30;20.90;99.90
51615;DHT22;37695;52.960;6.188;2023-08-06T13:35:55;20.90;99.90
51615;DHT22;37695;52.960;6.188;2023-08-06T13:38:21;20.80;99.90
51615;DHT22;37695;52.960;6.188;2023-08-06T13:40:46;20.70;99.90
51615;DHT22;37695;52.960;6.188;2023-08-06T13:43:13;20.70;99.90
51615;DHT22;37695;52.960;6.188;2023-08-06T13:45:38;20.60;99.90
51615;DHT22;37695;52.960;6.188;2023-08-06T13:48:04;20.60;99.90
51615;DHT22;37695;52.960;6.188;2023-08-06T13:50:29;20.50;99.90
51615;DHT22;37695;52.960;6.188;2023-08-06T13:52:55;20.50;99.90
51615;DHT22;37695;52.960;6.188;2023-08-06T13:55:21;20.50;99.90
51615;DHT22;37695;52.960;6.188;2023-08-06T13:57:47;20.40;99.90
51615;DHT22;37695;52.960;6.188;2023-08-06T14:00:13;20.30;99.90
51615;DHT22;37695;52.960;6.188;2023-08-06T14:02:39;20.30;99.90
51615;DHT22;37695;52.960;6.188;2023-08-06T14:05:04;20.40;99.90
51615;DHT22;37695;52.960;6.188;2023-08-06T14:07:30;20.30;99.90
51615;DHT22;37695;52.960;6.188;2023-08-06T14:09:56;20.40;99.90
51615;DHT22;37695;52.960;6.188;2023-08-06T14:12:23;20.40;99.90
51615;DHT22;37695;52.960;6.188;2023-08-06T14:14:48;20.40;99.90
51615;DHT22;37695;52.960;6.188;2023-08-06T14:17:14;20.30;99.90
51615;DHT22;37695;52.960;6.188;2023-08-06T14:19:41;20.30;99.90
51615;DHT22;37695;52.960;6.188;2023-08-06T14:22:06;20.30;99.90
51615;DHT22;37695;52.960;6.188;2023-08-06T14:24:32;20.20;99.90
51615;DHT22;37695;52.960;6.188;2023-08-06T14:26:57;20.30;99.90
51615;DHT22;37695;52.960;6.188;2023-08-06T14:29:23;20.30;99.90
51615;DHT22;37695;52.960;6.188;2023-08-06T14:31:49;20.20;99.90
51615;DHT22;37695;52.960;6.188;2023-08-06T14:34:15;20.20;99.90
51615;DHT22;37695;52.960;6.188;2023-08-06T14:36:41;20.20;99.90
51615;DHT22;37695;52.960;6.188;2023-08-06T14:39:07;20.10;99.90
51615;DHT22;37695;52.960;6.188;2023-08-06T14:41:32;20.00;99.90
51615;DHT22;37695;52.960;6.188;2023-08-06T14:43:58;19.90;99.90
51615;DHT22;37695;52.960;6.188;2023-08-06T14:46:23;19.80;99.90
51615;DHT22;37695;52.960;6.188;2023-08-06T14:48:49;19.70;99.90
51615;DHT22;37695;52.960;6.188;2023-08-06T14:51:15;19.60;99.90
51615;DHT22;37695;52.960;6.188;2023-08-06T14:53:40;19.50;99.90
51615;DHT22;37695;52.960;6.188;2023-08-06T14:56:06;19.40;99.90
51615;DHT22;37695;52.960;6.188;2023-08-06T14:58:32;19.30;99.90
51615;DHT22;37695;52.960;6.188;2023-08-06T15:00:57;19.30;99.90
51615;DHT22;37695;52.960;6.188;2023-08-06T15:03:23;19.30;99.90
51615;DHT22;37695;52.960;6.188;2023-08-06T15:05:49;19.30;99.90
51615;DHT22;37695;52.960;6.188;2023-08-06T15:08:14;19.20;99.90
51615;DHT22;37695;52.960;6.188;2023-08-06T15:10:40;19.20;99.90
51615;DHT22;37695;52.960;6.188;2023-08-06T15:13:06;19.10;99.90
51615;DHT22;37695;52.960;6.188;2023-08-06T15:15:32;19.10;99.90
51615;DHT22;37695;52.960;6.188;2023-08-06T15:17:57;19.00;99.90
51615;DHT22;37695;52.960;6.188;2023-08-06T15:20:24;19.10;99.90
51615;DHT22;37695;52.960;6.188;2023-08-06T15:22:50;19.10;99.90
51615;DHT22;37695;52.960;6.188;2023-08-06T15:25:15;19.10;99.90
51615;DHT22;37695;52.960;6.188;2023-08-06T15:27:41;19.20;99.90
51615;DHT22;37695;52.960;6.188;2023-08-06T15:30:07;19.20;99.90
51615;DHT22;37695;52.960;6.188;2023-08-06T15:32:33;19.20;99.90
51615;DHT22;37695;52.960;6.188;2023-08-06T15:34:58;19.20;99.90
51615;DHT22;37695;52.960;6.188;2023-08-06T15:37:24;19.10;99.90
51615;DHT22;37695;52.960;6.188;2023-08-06T15:39:52;19.10;99.90